Time;durP1;ratioP1;P1;durP2;ratioP2;P2;SDS_P1;SDS_P2;PMS_P1;PMS_P2;Temp;Humidity;BMP_temperature;BMP_pressure;BME280_temperature;BME280_humidity;BME280_pressure;Samples;Min_cycle;Max_cycle;Signal;HPM_P1;HPM_P2
2023/11/29 00:00:17;;;;;;;0.70;0.50;;;;;;;1.38;100.00;98200.27;105804;1258;71798;-55
2023/11/29 00:02:45;;;;;;;1.10;0.50;;;;;;;1.43;100.00;98197.30;106128;1257;60896;-51
2023/11/29 00:05:12;;;;;;;1.40;0.40;;;;;;;1.50;100.00;98198.23;105461;1256;60442;-55
2023/11/29 00:07:48;;;;;;;0.90;0.50;;;;;;;1.59;100.00;98193.35;105443;1259;72677;-55
2023/11/29 00:10:15;;;;;;;1.00;0.60;;;;;;;1.64;100.00;98189.24;105324;1259;66719;-55
2023/11/29 00:12:42;;;;;;;1.00;0.50;;;;;;;1.71;100.00;98194.46;105496;1259;71514;-53
2023/11/29 00:15:11;;;;;;;1.80;0.40;;;;;;;1.78;100.00;98189.97;105406;1253;60967;-51
2023/11/29 00:17:38;;;;;;;1.00;0.40;;;;;;;1.85;100.00;98190.61;105473;1256;60543;-55
2023/11/29 00:20:07;;;;;;;0.80;0.30;;;;;;;1.92;100.00;98184.31;106778;1255;73848;-56
2023/11/29 00:22:34;;;;;;;0.40;0.40;;;;;;;1.99;100.00;98184.58;106282;1254;67525;-52
2023/11/29 00:25:01;;;;;;;0.40;0.30;;;;;;;2.04;100.00;98185.23;105283;1258;73783;-52
2023/11/29 00:27:29;;;;;;;0.40;0.30;;;;;;;2.10;100.00;98179.20;105165;1258;61415;-54
2023/11/29 00:29:56;;;;;;;0.40;0.20;;;;;;;2.13;100.00;98179.23;105336;1259;60417;-57
2023/11/29 00:32:25;;;;;;;0.40;0.30;;;;;;;2.17;100.00;98178.86;105376;1254;74663;-54
2023/11/29 00:34:53;;;;;;;0.50;0.20;;;;;;;2.22;100.00;98171.60;108996;1253;65651;-57
2023/11/29 00:37:21;;;;;;;1.70;0.70;;;;;;;2.28;100.00;98170.50;109025;1253;72686;-56
2023/11/29 00:39:49;;;;;;;0.30;0.20;;;;;;;2.34;100.00;98161.77;109153;1254;60815;-57
2023/11/29 00:42:16;;;;;;;0.30;0.20;;;;;;;2.38;100.00;98160.52;108941;1253;59185;-57
2023/11/29 00:44:43;;;;;;;0.40;0.20;;;;;;;2.41;100.00;98163.56;109158;1252;74361;-55
2023/11/29 00:47:11;;;;;;;0.20;0.10;;;;;;;2.45;100.00;98158.66;109000;1258;66933;-57
2023/11/29 00:49:38;;;;;;;0.30;0.10;;;;;;;2.49;100.00;98151.75;109090;1254;73143;-57
2023/11/29 00:52:06;;;;;;;0.50;0.10;;;;;;;2.54;100.00;98147.48;108997;1253;59596;-56
2023/11/29 00:54:33;;;;;;;0.70;0.10;;;;;;;2.57;100.00;98148.91;108937;1253;60111;-57
2023/11/29 00:57:00;;;;;;;0.30;0.10;;;;;;;2.59;100.00;98151.84;108955;1253;73888;-57
2023/11/29 00:59:28;;;;;;;0.50;0.10;;;;;;;2.61;100.00;98149.45;108900;1255;67494;-56
2023/11/29 01:01:55;;;;;;;0.30;0.10;;;;;;;2.63;100.00;98146.02;108881;1254;71461;-55
2023/11/29 01:04:23;;;;;;;0.30;0.10;;;;;;;2.66;100.00;98144.14;108880;1255;59681;-56
2023/11/29 01:06:50;;;;;;;0.20;0.10;;;;;;;2.66;100.00;98135.80;108958;1253;60491;-57
2023/11/29 01:09:18;;;;;;;0.20;0.10;;;;;;;2.68;100.00;98140.86;109073;1253;73505;-56
2023/11/29 01:11:45;;;;;;;0.30;0.10;;;;;;;2.69;100.00;98141.88;109023;1254;67407;-56
2023/11/29 01:14:13;;;;;;;0.20;0.10;;;;;;;2.71;100.00;98138.98;108794;1253;73274;-53
2023/11/29 01:16:40;;;;;;;0.50;0.10;;;;;;;2.71;100.00;98128.17;109130;1253;63054;-54
2023/11/29 01:19:08;;;;;;;0.20;0.10;;;;;;;2.71;100.00;98125.51;105512;1258;60475;-55
2023/11/29 01:21:38;;;;;;;0.20;0.00;;;;;;;2.71;100.00;98125.17;105240;1260;71559;-56
2023/11/29 01:24:06;;;;;;;0.30;0.20;;;;;;;2.69;100.00;98123.28;106139;1254;65635;-52
2023/11/29 01:26:34;;;;;;;0.30;0.10;;;;;;;2.67;100.00;98118.92;105361;1258;72682;-54
2023/11/29 01:29:01;;;;;;;1.30;0.50;;;;;;;2.66;100.00;98117.38;107247;1254;60586;-55
2023/11/29 01:31:29;;;;;;;1.10;0.10;;;;;;;2.64;100.00;98108.59;105389;1259;60477;-51
2023/11/29 01:33:57;;;;;;;0.00;0.00;;;;;;;2.62;100.00;98104.83;105500;1255;72666;-56
2023/11/29 01:36:25;;;;;;;0.10;0.10;;;;;;;2.58;100.00;98102.33;106550;1257;67505;-54
2023/11/29 01:38:52;;;;;;;0.10;0.10;;;;;;;2.53;100.00;98093.32;105350;1254;71441;-54
2023/11/29 01:41:20;;;;;;;0.20;0.10;;;;;;;2.50;100.00;98094.35;105339;1260;60819;-50
2023/11/29 01:43:47;;;;;;;0.00;0.00;;;;;;;2.46;100.00;98084.98;105226;1259;60422;-55
2023/11/29 01:46:14;;;;;;;0.20;0.00;;;;;;;2.42;100.00;98075.21;105270;1258;73939;-53
2023/11/29 01:48:42;;;;;;;0.10;0.00;;;;;;;2.38;100.00;98073.80;105296;1258;67109;-50
2023/11/29 01:51:09;;;;;;;0.40;0.10;;;;;;;2.34;100.00;98071.83;105303;1257;74699;-54
2023/11/29 01:53:37;;;;;;;0.90;0.10;;;;;;;2.31;100.00;98067.35;105083;1254;60436;-50
2023/11/29 01:56:07;;;;;;;0.70;0.10;;;;;;;2.28;100.00;98058.98;105433;1260;59180;-54
2023/11/29 01:58:35;;;;;;;0.30;0.10;;;;;;;2.24;100.00;98053.29;105239;1259;73994;-55
2023/11/29 02:01:02;;;;;;;2.40;0.20;;;;;;;2.21;100.00;98053.05;105053;1259;66832;-56
2023/11/29 02:03:30;;;;;;;0.50;0.10;;;;;;;2.18;100.00;98050.19;105224;1263;72446;-54
2023/11/29 02:05:58;;;;;;;0.80;0.10;;;;;;;2.15;100.00;98047.30;105236;1259;60960;-53
2023/11/29 02:08:25;;;;;;;1.10;0.20;;;;;;;2.12;100.00;98040.38;105357;1268;60567;-50
2023/11/29 02:10:53;;;;;;;0.70;0.10;;;;;;;2.08;100.00;98041.77;105239;1256;72799;-51
2023/11/29 02:13:20;;;;;;;0.30;0.20;;;;;;;2.03;100.00;98041.46;105236;1259;65809;-57
2023/11/29 02:15:48;;;;;;;0.60;0.20;;;;;;;1.99;100.00;98031.35;105386;1259;72444;-54
2023/11/29 02:18:16;;;;;;;1.30;0.20;;;;;;;1.97;100.00;98033.36;105259;1259;60959;-55
2023/11/29 02:20:43;;;;;;;0.80;0.10;;;;;;;1.95;100.00;98029.58;105195;1260;60521;-56
2023/11/29 02:23:15;;;;;;;0.70;0.20;;;;;;;1.94;100.00;98028.73;105397;1260;73874;-53
2023/11/29 02:25:45;;;;;;;1.00;0.90;;;;;;;1.92;100.00;98024.04;106594;1259;65587;-54
2023/11/29 02:28:12;;;;;;;1.60;0.20;;;;;;;1.90;100.00;98020.73;105448;1257;72486;-54
2023/11/29 02:30:40;;;;;;;0.30;0.10;;;;;;;1.88;100.00;98019.59;105194;1257;60464;-55
2023/11/29 02:33:07;;;;;;;0.50;0.10;;;;;;;1.86;100.00;98019.16;105287;1259;60553;-57
2023/11/29 02:35:35;;;;;;;0.20;0.10;;;;;;;1.84;100.00;98014.10;105470;1256;73963;-55
2023/11/29 02:38:02;;;;;;;0.60;0.10;;;;;;;1.82;100.00;98009.75;105304;1259;69717;-55
2023/11/29 02:40:30;;;;;;;0.40;0.10;;;;;;;1.80;100.00;98008.07;105242;1255;72704;-50
2023/11/29 02:42:59;;;;;;;0.30;0.10;;;;;;;1.79;100.00;98004.21;105405;1259;60679;-55
2023/11/29 02:45:27;;;;;;;0.20;0.10;;;;;;;1.79;100.00;97998.40;105340;1261;60500;-51
2023/11/29 02:47:55;;;;;;;0.30;0.10;;;;;;;1.75;100.00;97994.48;105440;1258;74993;-55
2023/11/29 02:50:23;;;;;;;1.50;0.10;;;;;;;1.71;100.00;97993.73;105592;1259;66248;-56
2023/11/29 02:52:50;;;;;;;0.70;0.00;;;;;;;1.68;100.00;97987.70;105344;1259;70469;-57
2023/11/29 02:55:18;;;;;;;0.20;0.00;;;;;;;1.64;100.00;97986.61;105324;1263;60831;-55
2023/11/29 02:57:45;;;;;;;0.40;0.30;;;;;;;1.61;100.00;97982.87;105354;1261;60601;-54
2023/11/29 03:00:13;;;;;;;0.70;0.10;;;;;;;1.57;100.00;97978.45;105291;1254;72281;-53
2023/11/29 03:02:41;;;;;;;0.50;0.10;;;;;;;1.53;100.00;97977.88;105448;1258;67232;-53
2023/11/29 03:05:09;;;;;;;0.10;0.10;;;;;;;1.51;100.00;97970.54;105384;1260;73200;-57
2023/11/29 03:07:36;;;;;;;2.90;0.10;;;;;;;1.49;100.00;97969.39;105329;1258;60986;-54
2023/11/29 03:10:04;;;;;;;0.10;0.10;;;;;;;1.46;100.00;97966.32;105415;1256;60480;-52
2023/11/29 03:12:32;;;;;;;0.30;0.10;;;;;;;1.43;100.00;97963.63;105583;1255;75600;-54
2023/11/29 03:15:00;;;;;;;2.20;0.10;;;;;;;1.40;100.00;97957.18;105327;1260;65898;-53
2023/11/29 03:17:27;;;;;;;1.20;0.20;;;;;;;1.40;100.00;97954.19;105390;1259;72730;-54
2023/11/29 03:19:55;;;;;;;0.20;0.10;;;;;;;1.39;100.00;97954.77;105349;1255;60920;-53
2023/11/29 03:22:23;;;;;;;2.70;0.10;;;;;;;1.37;100.00;97952.70;105220;1262;60445;-53
2023/11/29 03:24:50;;;;;;;1.10;0.10;;;;;;;1.36;100.00;97947.48;105295;1259;72696;-55
2023/11/29 03:27:18;;;;;;;1.00;0.10;;;;;;;1.35;100.00;97948.56;105219;1254;67017;-54
2023/11/29 03:29:46;;;;;;;0.40;0.10;;;;;;;1.34;100.00;97944.55;106552;1256;71022;-55
2023/11/29 03:32:14;;;;;;;0.10;0.10;;;;;;;1.34;100.00;97942.25;105187;1259;60526;-56
2023/11/29 03:34:41;;;;;;;0.10;0.10;;;;;;;1.33;100.00;97940.15;108837;1254;59198;-53
2023/11/29 03:37:09;;;;;;;0.10;0.10;;;;;;;1.32;100.00;97939.66;108890;1259;71693;-56
2023/11/29 03:39:37;;;;;;;0.10;0.10;;;;;;;1.31;100.00;97939.02;106763;1254;66928;-54
2023/11/29 03:42:04;;;;;;;1.40;0.10;;;;;;;1.29;100.00;97932.20;105394;1258;72810;-58
2023/11/29 03:44:33;;;;;;;0.20;0.10;;;;;;;1.28;100.00;97928.14;108876;1254;59863;-56
2023/11/29 03:47:00;;;;;;;0.30;0.10;;;;;;;1.27;100.00;97924.48;109065;1254;60179;-58
2023/11/29 03:49:27;;;;;;;1.40;0.10;;;;;;;1.27;100.00;97924.14;109043;1254;73878;-55
2023/11/29 03:51:55;;;;;;;0.70;0.10;;;;;;;1.28;100.00;97919.67;108958;1254;65922;-58
2023/11/29 03:54:22;;;;;;;0.20;0.10;;;;;;;1.29;100.00;97918.05;108979;1254;72434;-56
2023/11/29 03:56:50;;;;;;;0.10;0.10;;;;;;;1.29;100.00;97913.08;108865;1253;60931;-53
2023/11/29 03:59:17;;;;;;;0.20;0.10;;;;;;;1.29;100.00;97911.86;109068;1253;58969;-57
2023/11/29 04:01:44;;;;;;;0.60;0.10;;;;;;;1.27;100.00;97908.59;109048;1254;74162;-57
2023/11/29 04:04:12;;;;;;;1.20;0.10;;;;;;;1.26;100.00;97909.35;109060;1255;67266;-56
2023/11/29 04:06:40;;;;;;;0.80;0.10;;;;;;;1.26;100.00;97905.45;109042;1253;71429;-56
2023/11/29 04:09:08;;;;;;;0.10;0.10;;;;;;;1.28;100.00;97902.91;109085;1254;59672;-57
2023/11/29 04:11:35;;;;;;;1.30;0.10;;;;;;;1.28;100.00;97899.20;108807;1254;60066;-58
2023/11/29 04:14:03;;;;;;;0.00;0.00;;;;;;;1.28;100.00;97899.17;108839;1254;73929;-57
2023/11/29 04:16:30;;;;;;;0.10;0.00;;;;;;;1.28;100.00;97892.27;109042;1253;67453;-57
2023/11/29 04:18:58;;;;;;;0.20;0.10;;;;;;;1.29;100.00;97893.30;109114;1257;72747;-57
2023/11/29 04:21:30;;;;;;;0.30;0.20;;;;;;;1.31;100.00;97887.41;108824;1260;59632;-57
2023/11/29 04:23:58;;;;;;;0.50;0.10;;;;;;;1.31;100.00;97883.33;108798;1254;60030;-57
2023/11/29 04:26:30;;;;;;;0.30;0.10;;;;;;;1.32;100.00;97883.30;108949;1254;74142;-56
2023/11/29 04:28:59;;;;;;;0.20;0.10;;;;;;;1.34;100.00;97883.05;108937;1254;65788;-57
2023/11/29 04:31:26;;;;;;;0.50;0.10;;;;;;;1.34;100.00;97879.70;108894;1254;72705;-57
2023/11/29 04:33:54;;;;;;;0.20;0.10;;;;;;;1.33;100.00;97878.13;107376;1254;60585;-59
2023/11/29 04:36:21;;;;;;;0.10;0.10;;;;;;;1.34;100.00;97876.34;105350;1254;60517;-57
2023/11/29 04:38:49;;;;;;;0.10;0.10;;;;;;;1.34;100.00;97871.74;105396;1257;74018;-58
2023/11/29 04:41:16;;;;;;;0.50;0.10;;;;;;;1.34;100.00;97869.63;105354;1260;66914;-56
2023/11/29 04:43:44;;;;;;;0.30;0.10;;;;;;;1.34;100.00;97867.50;105344;1260;70962;-56
2023/11/29 04:46:12;;;;;;;0.10;0.10;;;;;;;1.33;100.00;97866.83;105236;1254;60920;-55
2023/11/29 04:48:43;;;;;;;0.20;0.20;;;;;;;1.32;100.00;97859.45;105256;1254;60321;-57
2023/11/29 04:51:11;;;;;;;0.20;0.10;;;;;;;1.32;100.00;97857.51;105264;1258;74752;-56
2023/11/29 04:53:39;;;;;;;0.10;0.00;;;;;;;1.31;100.00;97854.19;105385;1258;65849;-55
2023/11/29 04:56:07;;;;;;;0.50;0.10;;;;;;;1.29;100.00;97851.42;105261;1260;72791;-56
2023/11/29 04:58:39;;;;;;;0.20;0.20;;;;;;;1.29;100.00;97847.02;106230;1256;60727;-55
2023/11/29 05:01:10;;;;;;;0.80;0.10;;;;;;;1.28;100.00;97843.90;105468;1255;59315;-56
2023/11/29 05:03:38;;;;;;;0.20;0.10;;;;;;;1.26;100.00;97843.44;105206;1254;72668;-58
2023/11/29 05:06:07;;;;;;;0.20;0.10;;;;;;;1.26;100.00;97836.73;105883;1257;66982;-57
2023/11/29 05:08:35;;;;;;;0.20;0.10;;;;;;;1.25;100.00;97834.14;106042;1257;75489;-58
2023/11/29 05:11:04;;;;;;;0.50;0.10;;;;;;;1.23;100.00;97828.36;105654;1254;60557;-57
2023/11/29 05:13:31;;;;;;;0.20;0.20;;;;;;;1.22;100.00;97826.83;106358;1257;60373;-57
2023/11/29 05:15:59;;;;;;;0.20;0.10;;;;;;;1.21;100.00;97823.13;105319;1257;72077;-57
2023/11/29 05:18:27;;;;;;;0.30;0.20;;;;;;;1.20;100.00;97821.05;105503;1257;65827;-56
2023/11/29 05:20:55;;;;;;;0.20;0.20;;;;;;;1.20;100.00;97823.02;108082;1257;71987;-55
2023/11/29 05:23:23;;;;;;;0.80;0.30;;;;;;;1.20;100.00;97818.94;105367;1253;60992;-58
2023/11/29 05:25:51;;;;;;;0.40;0.20;;;;;;;1.20;100.00;97817.52;106588;1254;59671;-56
2023/11/29 05:28:24;;;;;;;0.60;0.20;;;;;;;1.19;100.00;97816.19;105269;1256;73928;-57
2023/11/29 05:30:52;;;;;;;0.30;0.20;;;;;;;1.19;100.00;97817.41;105313;1254;65933;-58
2023/11/29 05:33:21;;;;;;;0.40;0.20;;;;;;;1.20;100.00;97813.83;106141;1254;71559;-58
2023/11/29 05:35:49;;;;;;;0.30;0.20;;;;;;;1.21;100.00;97814.33;106127;1254;60961;-57
2023/11/29 05:38:17;;;;;;;0.30;0.20;;;;;;;1.20;100.00;97818.26;104904;1254;60974;-56
2023/11/29 05:40:44;;;;;;;0.30;0.30;;;;;;;1.20;100.00;97810.29;107578;1254;73894;-57
2023/11/29 05:43:12;;;;;;;0.70;0.30;;;;;;;1.21;100.00;97810.78;105332;1254;66707;-56
2023/11/29 05:45:39;;;;;;;0.20;0.20;;;;;;;1.23;100.00;97807.71;105335;1262;71782;-56
2023/11/29 05:48:07;;;;;;;0.20;0.20;;;;;;;1.24;100.00;97806.23;105446;1258;61173;-54
2023/11/29 05:50:35;;;;;;;0.50;0.30;;;;;;;1.26;100.00;97806.88;106100;1255;59179;-56
2023/11/29 05:53:03;;;;;;;0.50;0.30;;;;;;;1.27;100.00;97804.73;105644;1257;72973;-55
2023/11/29 05:55:31;;;;;;;1.50;0.30;;;;;;;1.26;100.00;97803.32;105524;1254;67084;-57
2023/11/29 05:57:58;;;;;;;1.30;0.20;;;;;;;1.27;100.00;97800.29;106632;1254;71497;-56
2023/11/29 06:00:26;;;;;;;0.40;0.40;;;;;;;1.28;100.00;97797.95;105260;1258;60546;-56
2023/11/29 06:02:59;;;;;;;0.40;0.30;;;;;;;1.28;100.00;97804.28;106082;1254;60481;-54
2023/11/29 06:05:29;;;;;;;1.80;0.30;;;;;;;1.29;100.00;97800.20;106804;1257;72979;-55
2023/11/29 06:07:57;;;;;;;0.60;0.50;;;;;;;1.29;100.00;97797.18;106182;1254;67103;-54
2023/11/29 06:10:25;;;;;;;0.60;0.50;;;;;;;1.30;100.00;97799.80;105795;1261;72742;-55
2023/11/29 06:12:53;;;;;;;1.00;0.50;;;;;;;1.32;100.00;97800.25;105273;1254;60559;-55
2023/11/29 06:15:21;;;;;;;0.60;0.40;;;;;;;1.34;100.00;97797.88;106729;1254;60390;-54
2023/11/29 06:17:48;;;;;;;0.70;0.50;;;;;;;1.36;100.00;97804.15;105370;1254;74069;-54
2023/11/29 06:20:21;;;;;;;0.90;0.50;;;;;;;1.37;100.00;97804.28;107987;1254;66275;-55
2023/11/29 06:22:50;;;;;;;3.10;0.60;;;;;;;1.38;100.00;97807.58;105231;1258;73049;-54
2023/11/29 06:25:17;;;;;;;0.80;0.60;;;;;;;1.39;100.00;97807.00;105238;1257;62558;-56
2023/11/29 06:27:45;;;;;;;0.80;0.50;;;;;;;1.40;100.00;97814.38;105226;1255;61008;-54
2023/11/29 06:30:16;;;;;;;0.80;0.60;;;;;;;1.41;100.00;97812.06;105389;1258;73947;-54
2023/11/29 06:32:44;;;;;;;1.20;0.60;;;;;;;1.41;100.00;97811.67;106826;1254;65826;-55
2023/11/29 06:35:12;;;;;;;0.90;0.60;;;;;;;1.42;100.00;97813.95;105287;1260;72694;-56
2023/11/29 06:37:42;;;;;;;0.80;0.60;;;;;;;1.42;100.00;97814.30;108872;1254;59580;-55
2023/11/29 06:40:16;;;;;;;0.80;0.70;;;;;;;1.44;100.00;97815.48;106697;1259;60530;-56
2023/11/29 06:42:47;;;;;;;1.00;0.90;;;;;;;1.46;100.00;97813.25;108899;1253;75343;-56
2023/11/29 06:45:19;;;;;;;1.10;0.70;;;;;;;1.47;100.00;97820.98;108958;1253;67016;-58
2023/11/29 06:47:47;;;;;;;1.40;0.90;;;;;;;1.49;100.00;97820.72;109080;1254;72789;-54
2023/11/29 06:50:14;;;;;;;1.00;0.70;;;;;;;1.52;100.00;97822.70;108956;1257;59643;-56
2023/11/29 06:52:43;;;;;;;3.20;0.90;;;;;;;1.55;100.00;97824.88;109141;1253;60911;-54
2023/11/29 06:55:14;;;;;;;1.40;0.80;;;;;;;1.56;100.00;97825.73;109004;1253;73919;-53
2023/11/29 06:57:45;;;;;;;2.40;0.80;;;;;;;1.58;100.00;97827.61;109014;1254;67059;-55
2023/11/29 07:00:16;;;;;;;1.00;0.90;;;;;;;1.60;100.00;97820.98;108968;1254;72678;-54
2023/11/29 07:02:44;;;;;;;2.40;0.80;;;;;;;1.63;100.00;97825.96;109027;1253;60163;-56
2023/11/29 07:05:12;;;;;;;1.60;1.00;;;;;;;1.65;100.00;97830.31;109023;1254;60637;-55
2023/11/29 07:07:39;;;;;;;2.60;1.00;;;;;;;1.67;100.00;97833.95;109035;1254;77751;-55
2023/11/29 07:10:08;;;;;;;1.20;0.90;;;;;;;1.68;100.00;97835.83;109076;1254;67256;-54
2023/11/29 07:12:35;;;;;;;1.20;1.00;;;;;;;1.70;100.00;97837.31;109000;1254;72744;-55
2023/11/29 07:15:04;;;;;;;1.90;0.90;;;;;;;1.73;100.00;97831.55;108912;1258;58615;-57
2023/11/29 07:17:32;;;;;;;1.10;1.00;;;;;;;1.76;100.00;97825.95;106507;1253;3424240;-57
2023/11/29 07:21:41;;;;;;;0.80;0.70;;;;;;;1.80;100.00;97905.50;102213;1291;600197;-56
2023/11/29 07:24:08;;;;;;;1.30;0.90;;;;;;;1.82;100.00;97923.46;104463;1266;59289;-54
2023/11/29 07:26:36;;;;;;;2.70;2.40;;;;;;;1.83;100.00;97920.55;104102;1270;60061;-54
2023/11/29 07:29:04;;;;;;;6.30;3.80;;;;;;;1.85;100.00;97908.81;103878;1267;72578;-56
2023/11/29 07:31:34;;;;;;;3.60;3.20;;;;;;;1.86;100.00;97905.09;104575;1255;65484;-56
2023/11/29 07:34:02;;;;;;;3.70;3.40;;;;;;;1.86;100.00;97905.78;105027;1254;71558;-54
2023/11/29 07:36:30;;;;;;;5.50;4.30;;;;;;;1.86;100.00;97902.05;102484;1253;3559220;-56
2023/11/29 07:38:59;;;;;;;9.60;7.30;;;;;;;1.87;100.00;97909.46;105583;1252;59230;-55
2023/11/29 07:41:27;;;;;;;4.30;3.90;;;;;;;1.88;100.00;97914.38;105170;1253;71874;-55
2023/11/29 07:43:55;;;;;;;1.50;1.30;;;;;;;1.90;100.00;97913.73;105074;1253;65839;-56
2023/11/29 07:46:22;;;;;;;2.30;1.10;;;;;;;1.93;100.00;97917.89;105992;1252;72662;-56
2023/11/29 07:48:50;;;;;;;1.60;0.90;;;;;;;1.95;100.00;97913.90;105326;1256;59766;-55
2023/11/29 07:51:17;;;;;;;1.20;0.80;;;;;;;1.98;100.00;97920.46;105133;1256;59547;-54
2023/11/29 07:53:45;;;;;;;2.90;0.90;;;;;;;2.01;100.00;97927.25;105034;1256;73501;-54
2023/11/29 07:56:13;;;;;;;2.00;1.00;;;;;;;2.04;100.00;97931.39;105034;1253;65433;-54
2023/11/29 07:58:40;;;;;;;1.20;1.00;;;;;;;2.06;100.00;97929.69;104991;1253;72710;-55
2023/11/29 08:01:08;;;;;;;0.90;0.80;;;;;;;2.09;100.00;97930.08;104935;1256;60880;-52
2023/11/29 08:03:36;;;;;;;1.10;0.80;;;;;;;2.13;100.00;97929.02;107336;1253;59634;-64
2023/11/29 08:06:04;;;;;;;0.40;0.40;;;;;;;2.15;100.00;97929.80;104817;1256;73504;-55
2023/11/29 08:08:33;;;;;;;0.50;0.40;;;;;;;2.18;100.00;97933.75;105487;1254;67442;-54
2023/11/29 08:11:00;;;;;;;1.90;0.90;;;;;;;2.21;100.00;97932.20;104918;1253;71444;-56
2023/11/29 08:13:28;;;;;;;0.90;0.20;;;;;;;2.22;100.00;97930.02;104938;1259;61218;-55
2023/11/29 08:15:56;;;;;;;0.30;0.30;;;;;;;2.22;100.00;97935.85;105872;1258;59808;-54
2023/11/29 08:18:24;;;;;;;0.50;0.40;;;;;;;2.22;100.00;97933.40;105299;1259;74150;-54
2023/11/29 08:20:53;;;;;;;0.70;0.30;;;;;;;2.21;100.00;97935.54;105744;1256;67512;-54
2023/11/29 08:23:21;;;;;;;0.50;0.40;;;;;;;2.20;100.00;97935.08;105551;1258;72716;-56
2023/11/29 08:25:48;;;;;;;0.30;0.30;;;;;;;2.19;100.00;97939.36;105162;1255;59361;-55
2023/11/29 08:28:16;;;;;;;0.30;0.30;;;;;;;2.18;100.00;97942.05;105311;1256;59737;-54
2023/11/29 08:30:44;;;;;;;0.80;0.40;;;;;;;2.18;100.00;97944.89;107390;1256;73713;-53
2023/11/29 08:33:11;;;;;;;0.60;0.40;;;;;;;2.18;100.00;97946.66;105228;1256;65437;-56
2023/11/29 08:35:41;;;;;;;0.70;0.50;;;;;;;2.18;100.00;97945.44;105083;1257;73084;-56
2023/11/29 08:38:08;;;;;;;0.40;0.40;;;;;;;2.18;100.00;97948.08;105215;1259;59748;-54
2023/11/29 08:40:36;;;;;;;0.40;0.40;;;;;;;2.18;100.00;97955.14;105340;1257;61281;-54
2023/11/29 08:43:05;;;;;;;1.80;0.50;;;;;;;2.16;100.00;97958.61;105438;1258;72694;-53
2023/11/29 08:45:47;;;;;;;2.80;0.60;;;;;;;2.12;100.00;97971.68;105507;1258;64662;-56
2023/11/29 08:48:15;;;;;;;1.20;0.50;;;;;;;2.09;100.00;97970.07;105390;1256;72838;-55
2023/11/29 08:50:43;;;;;;;0.90;0.60;;;;;;;2.07;100.00;97977.40;106139;1254;60830;-53
2023/11/29 08:53:10;;;;;;;0.70;0.60;;;;;;;2.06;100.00;97976.05;107159;1258;58806;-53
2023/11/29 08:55:42;;;;;;;0.60;0.50;;;;;;;2.03;100.00;97979.17;105256;1259;73139;-57
2023/11/29 08:58:12;;;;;;;0.90;0.70;;;;;;;1.96;100.00;97974.89;105364;1257;66797;-55
2023/11/29 09:00:43;;;;;;;2.50;0.70;;;;;;;1.90;100.00;97979.55;105200;1257;71413;-56
2023/11/29 09:03:10;;;;;;;1.20;0.90;;;;;;;1.84;100.00;97977.32;105136;1258;60950;-57
2023/11/29 09:05:40;;;;;;;1.20;0.80;;;;;;;1.78;100.00;97979.17;105135;1256;60644;-54
2023/11/29 09:08:07;;;;;;;1.40;0.70;;;;;;;1.72;100.00;97978.69;105155;1259;73130;-54
2023/11/29 09:10:38;;;;;;;1.20;0.90;;;;;;;1.66;100.00;97976.65;105128;1258;65763;-52
2023/11/29 09:13:08;;;;;;;1.70;0.80;;;;;;;1.59;100.00;97975.88;105071;1257;72520;-55
2023/11/29 09:15:36;;;;;;;0.90;0.80;;;;;;;1.54;100.00;97978.73;105084;1258;59943;-54
2023/11/29 09:18:04;;;;;;;1.40;1.00;;;;;;;1.51;100.00;97978.31;105089;1258;59757;-54
2023/11/29 09:20:31;;;;;;;1.40;1.10;;;;;;;1.50;100.00;97977.65;105544;1259;70860;-57
2023/11/29 09:22:59;;;;;;;3.60;1.10;;;;;;;1.46;100.00;97982.77;105378;1253;67089;-57
2023/11/29 09:25:26;;;;;;;1.60;1.30;;;;;;;1.38;100.00;97973.73;105355;1254;72729;-56
2023/11/29 09:27:53;;;;;;;1.30;1.10;;;;;;;1.29;100.00;97976.20;105357;1259;61633;-58
2023/11/29 09:30:21;;;;;;;1.30;1.00;;;;;;;1.23;100.00;97981.02;105481;1256;59685;-56
2023/11/29 09:32:48;;;;;;;1.80;1.00;;;;;;;1.17;100.00;97981.45;105433;1253;73025;-54
2023/11/29 09:35:16;;;;;;;1.40;1.20;;;;;;;1.12;100.00;97983.04;105521;1253;69348;-56
2023/11/29 09:37:43;;;;;;;1.40;1.20;;;;;;;1.08;100.00;97989.75;105462;1253;72762;-55
2023/11/29 09:40:14;;;;;;;2.60;1.30;;;;;;;1.07;100.00;97998.24;105520;1256;59715;-58
2023/11/29 09:42:42;;;;;;;2.40;1.60;;;;;;;1.05;100.00;97997.95;105366;1255;59592;-55
2023/11/29 09:45:20;;;;;;;2.20;2.00;;;;;;;1.01;100.00;98003.60;108882;1254;73069;-57
2023/11/29 09:47:47;;;;;;;1.80;1.10;;;;;;;0.97;100.00;98005.88;109048;1253;66500;-57
2023/11/29 09:50:19;;;;;;;4.10;1.30;;;;;;;0.94;100.00;98011.27;108913;1253;71506;-58
2023/11/29 09:52:47;;;;;;;1.90;1.70;;;;;;;0.91;100.00;98012.83;109115;1253;61621;-57
2023/11/29 09:55:14;;;;;;;2.00;1.80;;;;;;;0.87;100.00;98011.55;107841;1256;60040;-57
2023/11/29 09:57:42;;;;;;;2.40;1.40;;;;;;;0.84;100.00;98011.88;105634;1259;73098;-57
2023/11/29 10:00:12;;;;;;;1.80;1.40;;;;;;;0.82;100.00;98013.52;105512;1253;67548;-56
2023/11/29 10:02:39;;;;;;;1.90;1.50;;;;;;;0.82;100.00;98021.63;105486;1253;74823;-58
2023/11/29 10:05:08;;;;;;;1.70;1.60;;;;;;;0.84;100.00;98025.80;109078;1258;59743;-56
2023/11/29 10:07:35;;;;;;;2.90;2.50;;;;;;;0.88;100.00;98035.52;109174;1252;60286;-55
2023/11/29 10:10:05;;;;;;;2.00;1.70;;;;;;;0.90;100.00;98040.05;109096;1253;73106;-57
2023/11/29 10:12:35;;;;;;;2.00;1.70;;;;;;;0.92;100.00;98048.83;107985;1256;68965;-54
2023/11/29 10:15:03;;;;;;;3.50;1.80;;;;;;;0.94;100.00;98050.66;105467;1253;72967;-55
2023/11/29 10:17:41;;;;;;;1.70;1.30;;;;;;;0.93;100.00;98054.97;108992;1257;60937;-57
2023/11/29 10:20:11;;;;;;;2.90;1.70;;;;;;;0.90;100.00;98062.30;109043;1252;59880;-58
2023/11/29 10:22:38;;;;;;;2.20;1.50;;;;;;;0.87;100.00;98058.88;109098;1253;72122;-55
2023/11/29 10:25:19;;;;;;;2.90;1.50;;;;;;;0.83;100.00;98065.91;106615;1254;64970;-53
2023/11/29 10:27:47;;;;;;;2.30;2.10;;;;;;;0.79;100.00;98069.23;109012;1256;72375;-55
2023/11/29 10:30:17;;;;;;;3.40;1.90;;;;;;;0.77;100.00;98069.49;105639;1259;61674;-57
2023/11/29 10:32:45;;;;;;;3.00;2.10;;;;;;;0.75;100.00;98072.22;106222;1256;59986;-55
2023/11/29 10:35:13;;;;;;;2.50;2.00;;;;;;;0.72;100.00;98078.48;105880;1259;73105;-53
2023/11/29 10:37:46;;;;;;;3.30;1.80;;;;;;;0.70;100.00;98089.86;105787;1256;65770;-54
2023/11/29 10:40:14;;;;;;;2.10;1.60;;;;;;;0.63;100.00;98091.84;105515;1259;73129;-54
2023/11/29 10:42:43;;;;;;;3.90;1.60;;;;;;;0.56;100.00;98093.52;105386;1255;59702;-52
2023/11/29 10:45:15;;;;;;;2.70;1.20;;;;;;;0.51;100.00;98093.73;105445;1253;60204;-55
2023/11/29 10:47:49;;;;;;;2.50;1.50;;;;;;;0.46;100.00;98096.69;105958;1256;73185;-55
2023/11/29 10:50:17;;;;;;;3.20;1.60;;;;;;;0.43;100.00;98107.04;106255;1258;66103;-55
2023/11/29 10:52:45;;;;;;;2.50;1.80;;;;;;;0.40;100.00;98100.62;105373;1256;71438;-57
2023/11/29 10:55:14;;;;;;;3.10;2.20;;;;;;;0.39;100.00;98105.06;105416;1257;59756;-53
2023/11/29 10:57:54;;;;;;;1.90;1.60;;;;;;;0.38;100.00;98110.75;105709;1259;59712;-56
2023/11/29 11:00:21;;;;;;;2.30;2.10;;;;;;;0.32;100.00;98117.45;105516;1253;71576;-54
2023/11/29 11:02:49;;;;;;;2.30;2.00;;;;;;;0.25;100.00;98116.45;105235;1258;65808;-55
2023/11/29 11:05:18;;;;;;;2.30;2.10;;;;;;;0.18;100.00;98117.05;105725;1259;71087;-55
2023/11/29 11:07:46;;;;;;;2.30;2.00;;;;;;;0.12;100.00;98123.59;106294;1253;59623;-57
2023/11/29 11:10:23;;;;;;;2.90;2.20;;;;;;;0.10;100.00;98128.78;105009;1253;60479;-58
2023/11/29 11:12:52;;;;;;;3.60;2.40;;;;;;;0.08;100.00;98128.49;105057;1256;73197;-53
2023/11/29 11:15:28;;;;;;;5.00;2.30;;;;;;;0.09;100.00;98136.58;105535;1255;67044;-56
2023/11/29 11:18:01;;;;;;;3.00;2.30;;;;;;;0.07;100.00;98150.04;105696;1253;73248;-55
2023/11/29 11:20:39;;;;;;;3.20;2.40;;;;;;;0.07;100.00;98162.21;107009;1254;59679;-55
2023/11/29 11:23:07;;;;;;;2.00;1.60;;;;;;;0.06;100.00;98160.30;105478;1254;60118;-55
2023/11/29 11:25:35;;;;;;;3.40;2.30;;;;;;;0.05;100.00;98165.09;105452;1254;73140;-54
2023/11/29 11:28:03;;;;;;;3.10;2.60;;;;;;;0.05;100.00;98160.69;105573;1259;67439;-53
2023/11/29 11:30:31;;;;;;;3.70;2.30;;;;;;;0.05;100.00;98166.17;105800;1258;72733;-58